createdAt,value
2023-03-15T00:01:14.749Z,99685.16
2023-03-15T00:06:17.622Z,99688.59
2023-03-15T00:11:18.829Z,99692.88
2023-03-15T00:16:19.577Z,99699.75
2023-03-15T00:21:22.477Z,99705.75
2023-03-15T00:26:23.632Z,99716.88
2023-03-15T00:31:26.140Z,99728.03
2023-03-15T00:36:28.707Z,99728.03
2023-03-15T00:41:29.409Z,99723.75
2023-03-15T00:46:30.136Z,99742.56
2023-03-15T00:51:33.509Z,99744.22
2023-03-15T00:56:34.192Z,99741.66
2023-03-15T01:01:35.328Z,99750.22
2023-03-15T01:06:40.333Z,99751.09
2023-03-15T01:11:41.041Z,99752.81
2023-03-15T01:16:41.758Z,99751.91
2023-03-15T01:21:47.804Z,99770.69
2023-03-15T01:26:51.055Z,99770.75
2023-03-15T01:31:51.796Z,99781.88
2023-03-15T01:36:53.955Z,99776.75
2023-03-15T01:42:00.088Z,99779.31
2023-03-15T01:47:00.927Z,99781.06
2023-03-15T01:52:07.884Z,99777.59
2023-03-15T01:57:27.022Z,99781.78
2023-03-15T02:02:29.108Z,99784.25
2023-03-15T02:07:34.581Z,99788.47
2023-03-15T02:12:41.755Z,99786.75
2023-03-15T02:17:45.240Z,99782.38
2023-03-15T02:22:53.668Z,99782.38
2023-03-15T02:27:58.036Z,99780.63
2023-03-15T02:32:59.477Z,99800.44
2023-03-15T02:38:02.666Z,99804.66
2023-03-15T02:43:07.945Z,99803.81
2023-03-15T02:48:11.091Z,99809.84
2023-03-15T02:53:12.387Z,99820.19
2023-03-15T02:58:14.508Z,99828.78
2023-03-15T03:03:16.111Z,99824.47
2023-03-15T03:08:17.045Z,99840.69
2023-03-15T03:13:19.711Z,99844.88
2023-03-15T03:18:21.152Z,99855.69
2023-03-15T03:23:21.906Z,99868.41
2023-03-15T03:28:25.562Z,99875.94
2023-03-15T03:33:26.572Z,99895.56
2023-03-15T03:38:27.375Z,99892.91
2023-03-15T03:43:32.758Z,99900.59
2023-03-15T03:48:33.774Z,99903.81
2023-03-15T03:53:34.508Z,99911.50
2023-03-15T03:58:36.736Z,99918.19
2023-03-15T04:03:51.209Z,99921.53
2023-03-15T04:08:54.236Z,99907.03
2023-03-15T04:14:15.633Z,99922.63
2023-03-15T04:19:18.908Z,99936.19
2023-03-15T04:24:19.681Z,99941.31
2023-03-15T04:29:41.961Z,99948.88
2023-03-15T04:35:02.146Z,99958.44
2023-03-15T04:40:15.315Z,99963.72
2023-03-15T04:45:28.379Z,99968.84
2023-03-15T04:50:47.658Z,99979.53
2023-03-15T04:55:57.532Z,99994.28
2023-03-15T05:01:32.698Z,99998.97
2023-03-15T05:07:02.489Z,100000.59
2023-03-15T05:12:33.796Z,100009.22
2023-03-15T05:17:55.934Z,100017.13
2023-03-15T05:23:10.412Z,100022.97
2023-03-15T05:28:19.325Z,100028.09
2023-03-15T05:33:33.082Z,100034.94
2023-03-15T05:38:45.591Z,100047.78
2023-03-15T05:43:57.579Z,100057.19
2023-03-15T05:49:17.661Z,100070.91
2023-03-15T05:54:29.427Z,100075.28
2023-03-15T05:59:56.143Z,100087.34
2023-03-15T06:05:15.620Z,100094.19
2023-03-15T06:10:16.827Z,100104.41
2023-03-15T06:15:18.319Z,100102.13
2023-03-15T06:20:21.083Z,100115.94
2023-03-15T06:25:22.490Z,100127.06
2023-03-15T06:30:26.028Z,100133.91
2023-03-15T06:35:31.721Z,100145.06
2023-03-15T06:40:32.819Z,100141.06
2023-03-15T06:45:34.344Z,100143.66
2023-03-15T06:50:46.570Z,100154.00
2023-03-15T06:55:50.618Z,100156.75
2023-03-15T07:00:52.385Z,100158.56
2023-03-15T07:05:54.776Z,100161.16
2023-03-15T07:10:55.555Z,100166.50
2023-03-15T07:15:57.448Z,100170.75
2023-03-15T07:21:01.101Z,100161.50
2023-03-15T07:26:01.917Z,100155.63
2023-03-15T07:31:04.540Z,100151.56
2023-03-15T07:36:08.040Z,100158.44
2023-03-15T07:41:09.274Z,100174.81
2023-03-15T07:46:13.118Z,100163.69
2023-03-15T07:51:15.354Z,100169.88
2023-03-15T07:56:16.268Z,100170.72
2023-03-15T08:01:17.208Z,100172.44
2023-03-15T08:06:19.316Z,100175.88
2023-03-15T08:11:19.983Z,100176.84
2023-03-15T08:16:20.879Z,100184.69
2023-03-15T08:21:22.942Z,100180.38
2023-03-15T08:26:23.624Z,100201.91
2023-03-15T08:31:24.781Z,100213.94
2023-03-15T08:36:27.043Z,100210.47
2023-03-15T08:41:27.820Z,100211.38
2023-03-15T08:46:28.856Z,100223.34
2023-03-15T08:51:31.136Z,100221.56
2023-03-15T08:56:32.519Z,100266.00
2023-03-15T09:01:47.452Z,100275.56
2023-03-15T09:06:50.327Z,100284.31
2023-03-15T09:11:51.262Z,100288.34
2023-03-15T09:16:52.206Z,100292.53
2023-03-15T09:21:54.308Z,100288.47
2023-03-15T09:26:55.027Z,100298.34
2023-03-15T09:31:56.187Z,100288.75
2023-03-15T09:36:58.312Z,100297.50
2023-03-15T09:42:01.324Z,100285.09
2023-03-15T09:47:14.730Z,100286.88
2023-03-15T09:52:27.822Z,100287.56
2023-03-15T09:57:38.284Z,100299.09
2023-03-15T10:02:44.961Z,100292.34
2023-03-15T10:07:47.589Z,100301.03
2023-03-15T10:12:57.851Z,100305.38
2023-03-15T10:18:26.880Z,100313.28
2023-03-15T10:23:39.085Z,100313.25
2023-03-15T10:28:40.867Z,100317.53
2023-03-15T10:33:42.242Z,100319.19
2023-03-15T10:38:44.968Z,100318.44
2023-03-15T10:43:59.541Z,100324.47
2023-03-15T10:49:01.581Z,100329.63
2023-03-15T10:54:07.955Z,100325.38
2023-03-15T10:59:16.810Z,100325.50
2023-03-15T11:04:21.422Z,100329.03
2023-03-15T11:09:26.721Z,100330.81
2023-03-15T11:14:33.210Z,100323.88
2023-03-15T11:19:38.858Z,100331.72
2023-03-15T11:24:41.183Z,100326.50
2023-03-15T11:29:45.024Z,100324.94
2023-03-15T11:34:51.809Z,100327.56
2023-03-15T11:40:08.862Z,100330.19
2023-03-15T11:45:17.701Z,100338.78
2023-03-15T11:50:18.618Z,100325.81
2023-03-15T11:55:25.247Z,100330.97
2023-03-15T12:00:42.736Z,100324.16
2023-03-15T12:05:45.820Z,100316.47
2023-03-15T12:10:50.679Z,100310.41
2023-03-15T12:15:52.962Z,100315.56
2023-03-15T12:21:07.431Z,100317.25
2023-03-15T12:26:12.642Z,100305.22
2023-03-15T12:31:15.258Z,100308.69
2023-03-15T12:36:33.094Z,100309.59
2023-03-15T12:41:43.687Z,100307.88
2023-03-15T12:46:59.321Z,100317.31
2023-03-15T12:52:02.208Z,100320.75
2023-03-15T12:57:05.441Z,100317.28
2023-03-15T13:02:35.872Z,100323.28
2023-03-15T13:08:06.390Z,100320.72
2023-03-15T13:13:29.552Z,100319.88
2023-03-15T13:18:33.764Z,100321.63
2023-03-15T13:23:35.932Z,100322.53
2023-03-15T13:28:42.485Z,100319.06
2023-03-15T13:33:43.539Z,100312.06
2023-03-15T13:38:45.856Z,100313.00
2023-03-15T13:43:49.725Z,100308.56
2023-03-15T13:48:51.513Z,100311.84
2023-03-15T13:53:55.605Z,100311.00
2023-03-15T13:58:58.237Z,100310.09
2023-03-15T14:04:02.572Z,100312.97
2023-03-15T14:09:10.082Z,100342.28
2023-03-15T14:14:26.282Z,100329.38
2023-03-15T14:19:29.159Z,100343.22
2023-03-15T14:24:34.560Z,100356.16
2023-03-15T14:29:39.027Z,100360.47
2023-03-15T14:34:46.424Z,100353.59
2023-03-15T14:39:47.076Z,100364.78
2023-03-15T14:44:49.091Z,100369.06
2023-03-15T14:49:49.827Z,100355.25
2023-03-15T14:54:51.629Z,100354.41
2023-03-15T14:59:53.848Z,100348.28
2023-03-15T15:04:54.875Z,100349.19
2023-03-15T15:09:55.595Z,100355.28
2023-03-15T15:14:57.581Z,100356.06
2023-03-15T15:19:58.250Z,100356.97
2023-03-15T15:24:58.973Z,100366.47
2023-03-15T15:30:01.025Z,100375.06
2023-03-15T15:35:02.471Z,100371.63
2023-03-15T15:40:04.113Z,100371.56
2023-03-15T15:45:11.785Z,100378.47
2023-03-15T15:50:14.450Z,100389.72
2023-03-15T15:55:17.299Z,100389.72
2023-03-15T16:00:21.534Z,100405.28
2023-03-15T16:05:25.640Z,100416.53
2023-03-15T16:10:30.326Z,100402.69
2023-03-15T16:15:32.367Z,100419.03
2023-03-15T16:20:33.084Z,100420.69
2023-03-15T16:25:37.025Z,100428.41
2023-03-15T16:30:41.239Z,100439.66
2023-03-15T16:35:41.971Z,100449.94
2023-03-15T16:40:44.735Z,100454.28
2023-03-15T16:45:47.164Z,100470.63
2023-03-15T16:50:48.682Z,100477.41
2023-03-15T16:55:49.360Z,100490.28
2023-03-15T17:00:51.490Z,100488.50
2023-03-15T17:05:52.281Z,100496.13
2023-03-15T17:10:53.594Z,100513.28
2023-03-15T17:15:55.859Z,100515.75
2023-03-15T17:20:56.586Z,100527.63
2023-03-15T17:25:57.360Z,100536.06
2023-03-15T17:31:23.267Z,100544.59
2023-03-15T17:36:23.216Z,100554.78
2023-03-15T17:41:26.739Z,100561.66
2023-03-15T17:46:30.254Z,100575.44
2023-03-15T17:51:32.880Z,100585.84
2023-03-15T17:56:33.572Z,100598.63
2023-03-15T18:01:36.478Z,100604.44
2023-03-15T18:06:37.830Z,100614.63
2023-03-15T18:11:42.093Z,100620.56
2023-03-15T18:16:45.346Z,100628.09
2023-03-15T18:21:46.111Z,100631.47
2023-03-15T18:26:47.109Z,100639.09
2023-03-15T18:31:49.215Z,100635.63
2023-03-15T18:36:49.992Z,100637.03
2023-03-15T18:41:50.853Z,100644.69
2023-03-15T18:46:53.893Z,100650.66
2023-03-15T18:51:56.330Z,100661.63
2023-03-15T18:56:57.044Z,100661.59
2023-03-15T19:01:59.197Z,100670.69
2023-03-15T19:06:59.896Z,100680.09
2023-03-15T19:12:01.346Z,100677.34
2023-03-15T19:17:03.402Z,100680.72
2023-03-15T19:22:04.153Z,100687.53
2023-03-15T19:27:04.934Z,100698.47
2023-03-15T19:32:07.478Z,100696.75
2023-03-15T19:37:08.369Z,100706.88
2023-03-15T19:42:09.144Z,100711.88
2023-03-15T19:47:11.221Z,100722.75
2023-03-15T19:52:14.440Z,100731.75
2023-03-15T19:57:15.252Z,100731.00
2023-03-15T20:02:17.497Z,100736.16
2023-03-15T20:07:18.561Z,100749.97
2023-03-15T20:12:19.346Z,100755.84
2023-03-15T20:17:21.474Z,100756.56
2023-03-15T20:22:22.263Z,100768.34
2023-03-15T20:27:23.074Z,100763.72
2023-03-15T20:32:25.316Z,100770.53
2023-03-15T20:37:26.221Z,100778.88
2023-03-15T20:42:27.071Z,100793.91
2023-03-15T20:47:29.145Z,100804.97
2023-03-15T20:52:32.195Z,100805.56
2023-03-15T20:57:34.228Z,100816.47
2023-03-15T21:02:36.320Z,100823.06
2023-03-15T21:07:37.198Z,100828.94
2023-03-15T21:12:37.897Z,100836.25
2023-03-15T21:17:39.938Z,100835.28
2023-03-15T21:22:40.590Z,100850.53
2023-03-15T21:27:41.366Z,100846.16
2023-03-15T21:32:44.711Z,100849.28
2023-03-15T21:37:45.817Z,100852.22
2023-03-15T21:42:47.868Z,100857.91
2023-03-15T21:47:50.006Z,100857.66
2023-03-15T21:52:50.684Z,100862.38
2023-03-15T21:57:51.892Z,100863.22
2023-03-15T22:02:55.770Z,100880.00
2023-03-15T22:07:56.687Z,100878.13
2023-03-15T22:12:58.129Z,100880.53
2023-03-15T22:18:02.237Z,100876.28
2023-03-15T22:23:04.395Z,100880.63
2023-03-15T22:28:05.119Z,100877.94
2023-03-15T22:33:07.615Z,100889.72
2023-03-15T22:38:10.141Z,100903.25
2023-03-15T22:43:11.030Z,100896.78
2023-03-15T22:48:13.021Z,100900.06
2023-03-15T22:53:13.675Z,100906.94
2023-03-15T22:58:14.343Z,100915.34
2023-03-15T23:03:16.561Z,100915.13
2023-03-15T23:08:17.225Z,100917.69
2023-03-15T23:13:17.869Z,100927.00
2023-03-15T23:18:20.018Z,100927.56
2023-03-15T23:23:21.010Z,100927.47
2023-03-15T23:28:24.400Z,100928.16
2023-03-15T23:33:26.375Z,100934.16
2023-03-15T23:38:28.363Z,100931.50
2023-03-15T23:43:29.361Z,100928.88
2023-03-15T23:48:34.610Z,100945.63
2023-03-15T23:53:36.231Z,100945.44
2023-03-15T23:58:36.943Z,100950.69
